sensor_id;sensor_type;location;lat;lon;timestamp;pressure;altitude;pressure_sealevel;temperature;humidity
20394;BME280;10356;50.544;9.642;2023-07-09T00:00:15;98505.63;;;20.21;59.08
20394;BME280;10356;50.544;9.642;2023-07-09T00:02:42;98499.69;;;20.11;59.59
20394;BME280;10356;50.544;9.642;2023-07-09T00:05:15;98503.69;;;20.07;59.84
20394;BME280;10356;50.544;9.642;2023-07-09T00:07:44;98488.97;;;20.04;59.57
20394;BME280;10356;50.544;9.642;2023-07-09T00:10:15;98501.06;;;19.99;60.15
20394;BME280;10356;50.544;9.642;2023-07-09T00:12:42;98511.31;;;19.94;60.11
20394;BME280;10356;50.544;9.642;2023-07-09T00:15:10;98510.19;;;19.88;60.33
20394;BME280;10356;50.544;9.642;2023-07-09T00:17:37;98516.50;;;19.87;60.45
20394;BME280;10356;50.544;9.642;2023-07-09T00:20:06;98519.97;;;19.80;60.61
20394;BME280;10356;50.544;9.642;2023-07-09T00:22:38;98512.72;;;19.74;61.28
20394;BME280;10356;50.544;9.642;2023-07-09T00:25:05;98507.63;;;19.64;62.27
20394;BME280;10356;50.544;9.642;2023-07-09T00:27:32;98503.38;;;19.55;62.87
20394;BME280;10356;50.544;9.642;2023-07-09T00:29:59;98505.19;;;19.47;63.50
20394;BME280;10356;50.544;9.642;2023-07-09T00:32:25;98512.31;;;19.38;64.53
20394;BME280;10356;50.544;9.642;2023-07-09T00:34:53;98512.13;;;19.32;64.71
20394;BME280;10356;50.544;9.642;2023-07-09T00:37:23;98520.72;;;19.25;65.21
20394;BME280;10356;50.544;9.642;2023-07-09T00:39:52;98522.03;;;19.21;65.58
20394;BME280;10356;50.544;9.642;2023-07-09T00:42:20;98520.41;;;19.12;65.98
20394;BME280;10356;50.544;9.642;2023-07-09T00:44:50;98517.91;;;19.11;65.51
20394;BME280;10356;50.544;9.642;2023-07-09T00:47:26;98512.47;;;19.04;65.78
20394;BME280;10356;50.544;9.642;2023-07-09T00:50:06;98513.44;;;19.03;65.48
20394;BME280;10356;50.544;9.642;2023-07-09T00:52:38;98517.09;;;19.02;65.78
20394;BME280;10356;50.544;9.642;2023-07-09T00:55:10;98512.13;;;18.99;65.69
20394;BME280;10356;50.544;9.642;2023-07-09T00:57:40;98519.75;;;18.94;66.30
20394;BME280;10356;50.544;9.642;2023-07-09T01:00:10;98515.78;;;18.90;66.59
20394;BME280;10356;50.544;9.642;2023-07-09T01:02:41;98514.59;;;18.85;66.65
20394;BME280;10356;50.544;9.642;2023-07-09T01:05:11;98517.75;;;18.80;66.96
20394;BME280;10356;50.544;9.642;2023-07-09T01:07:40;98519.22;;;18.75;67.52
20394;BME280;10356;50.544;9.642;2023-07-09T01:10:08;98526.31;;;18.66;67.90
20394;BME280;10356;50.544;9.642;2023-07-09T01:12:35;98522.00;;;18.57;68.33
20394;BME280;10356;50.544;9.642;2023-07-09T01:15:01;98527.63;;;18.54;69.19
20394;BME280;10356;50.544;9.642;2023-07-09T01:17:29;98526.59;;;18.47;69.52
20394;BME280;10356;50.544;9.642;2023-07-09T01:19:56;98522.63;;;18.43;69.36
20394;BME280;10356;50.544;9.642;2023-07-09T01:22:24;98530.00;;;18.39;69.50
20394;BME280;10356;50.544;9.642;2023-07-09T01:24:55;98526.34;;;18.32;69.99
20394;BME280;10356;50.544;9.642;2023-07-09T01:27:28;98527.00;;;18.26;70.45
20394;BME280;10356;50.544;9.642;2023-07-09T01:29:56;98533.56;;;18.22;70.61
20394;BME280;10356;50.544;9.642;2023-07-09T01:32:24;98527.13;;;18.17;70.89
20394;BME280;10356;50.544;9.642;2023-07-09T01:34:53;98529.09;;;18.15;71.50
20394;BME280;10356;50.544;9.642;2023-07-09T01:37:22;98523.50;;;18.10;71.34
20394;BME280;10356;50.544;9.642;2023-07-09T01:39:51;98531.03;;;18.05;71.36
20394;BME280;10356;50.544;9.642;2023-07-09T01:42:19;98522.75;;;18.00;72.30
20394;BME280;10356;50.544;9.642;2023-07-09T01:44:47;98522.75;;;18.00;71.92
20394;BME280;10356;50.544;9.642;2023-07-09T01:47:14;98525.72;;;17.97;71.86
20394;BME280;10356;50.544;9.642;2023-07-09T01:49:41;98523.75;;;17.99;71.63
20394;BME280;10356;50.544;9.642;2023-07-09T01:52:07;98524.72;;;17.98;72.35
20394;BME280;10356;50.544;9.642;2023-07-09T01:54:34;98527.69;;;17.95;72.34
20394;BME280;10356;50.544;9.642;2023-07-09T01:57:16;98525.38;;;17.92;72.69
20394;BME280;10356;50.544;9.642;2023-07-09T01:59:44;98522.38;;;17.87;73.20
20394;BME280;10356;50.544;9.642;2023-07-09T02:02:11;98527.63;;;17.79;73.69
20394;BME280;10356;50.544;9.642;2023-07-09T02:04:45;98530.88;;;17.73;74.01
20394;BME280;10356;50.544;9.642;2023-07-09T02:07:11;98530.22;;;17.71;74.18
20394;BME280;10356;50.544;9.642;2023-07-09T02:09:38;98533.16;;;17.68;74.47
20394;BME280;10356;50.544;9.642;2023-07-09T02:12:05;98526.53;;;17.63;74.74
20394;BME280;10356;50.544;9.642;2023-07-09T02:14:33;98526.34;;;17.57;75.10
20394;BME280;10356;50.544;9.642;2023-07-09T02:16:59;98528.78;;;17.50;75.34
20394;BME280;10356;50.544;9.642;2023-07-09T02:19:25;98532.97;;;17.43;76.01
20394;BME280;10356;50.544;9.642;2023-07-09T02:21:52;98537.91;;;17.38;76.09
20394;BME280;10356;50.544;9.642;2023-07-09T02:24:18;98545.97;;;17.37;76.59
20394;BME280;10356;50.544;9.642;2023-07-09T02:26:45;98541.81;;;17.34;76.70
20394;BME280;10356;50.544;9.642;2023-07-09T02:29:11;98542.66;;;17.35;76.74
20394;BME280;10356;50.544;9.642;2023-07-09T02:31:39;98544.28;;;17.36;77.04
20394;BME280;10356;50.544;9.642;2023-07-09T02:34:05;98532.84;;;17.27;77.70
20394;BME280;10356;50.544;9.642;2023-07-09T02:36:32;98541.97;;;17.15;77.94
20394;BME280;10356;50.544;9.642;2023-07-09T02:38:59;98538.69;;;17.13;77.70
20394;BME280;10356;50.544;9.642;2023-07-09T02:41:25;98543.44;;;17.10;78.08
20394;BME280;10356;50.544;9.642;2023-07-09T02:43:52;98545.38;;;17.08;78.19
20394;BME280;10356;50.544;9.642;2023-07-09T02:46:18;98542.25;;;17.04;78.23
20394;BME280;10356;50.544;9.642;2023-07-09T02:48:46;98548.13;;;16.98;78.73
20394;BME280;10356;50.544;9.642;2023-07-09T02:51:12;98544.13;;;16.94;78.64
20394;BME280;10356;50.544;9.642;2023-07-09T02:53:39;98538.88;;;16.94;78.92
20394;BME280;10356;50.544;9.642;2023-07-09T02:56:05;98551.03;;;16.95;78.72
20394;BME280;10356;50.544;9.642;2023-07-09T02:58:32;98557.97;;;16.96;78.71
20394;BME280;10356;50.544;9.642;2023-07-09T03:00:58;98547.72;;;16.93;78.99
20394;BME280;10356;50.544;9.642;2023-07-09T03:03:25;98547.03;;;16.91;79.19
20394;BME280;10356;50.544;9.642;2023-07-09T03:05:55;98563.09;;;16.80;80.46
20394;BME280;10356;50.544;9.642;2023-07-09T03:08:21;98556.53;;;16.84;79.76
20394;BME280;10356;50.544;9.642;2023-07-09T03:10:48;98561.81;;;16.84;79.80
20394;BME280;10356;50.544;9.642;2023-07-09T03:13:14;98556.03;;;16.81;79.80
20394;BME280;10356;50.544;9.642;2023-07-09T03:15:41;98563.00;;;16.72;80.36
20394;BME280;10356;50.544;9.642;2023-07-09T03:18:07;98559.25;;;16.74;80.15
20394;BME280;10356;50.544;9.642;2023-07-09T03:20:34;98556.75;;;16.73;80.38
20394;BME280;10356;50.544;9.642;2023-07-09T03:23:02;98548.13;;;16.81;80.47
20394;BME280;10356;50.544;9.642;2023-07-09T03:25:30;98557.59;;;16.73;80.28
20394;BME280;10356;50.544;9.642;2023-07-09T03:27:56;98559.00;;;16.68;80.61
20394;BME280;10356;50.544;9.642;2023-07-09T03:30:22;98568.19;;;16.64;80.82
20394;BME280;10356;50.544;9.642;2023-07-09T03:32:49;98564.56;;;16.65;80.88
20394;BME280;10356;50.544;9.642;2023-07-09T03:35:15;98562.91;;;16.64;81.00
20394;BME280;10356;50.544;9.642;2023-07-09T03:37:42;98566.22;;;16.66;81.01
20394;BME280;10356;50.544;9.642;2023-07-09T03:40:10;98572.00;;;16.69;80.94
20394;BME280;10356;50.544;9.642;2023-07-09T03:42:37;98580.75;;;16.70;80.94
20394;BME280;10356;50.544;9.642;2023-07-09T03:45:04;98583.38;;;16.70;81.04
20394;BME280;10356;50.544;9.642;2023-07-09T03:47:30;98583.38;;;16.70;81.48
20394;BME280;10356;50.544;9.642;2023-07-09T03:49:57;98581.44;;;16.72;81.54
20394;BME280;10356;50.544;9.642;2023-07-09T03:52:23;98589.31;;;16.72;81.38
20394;BME280;10356;50.544;9.642;2023-07-09T03:54:50;98583.91;;;16.91;81.26
20394;BME280;10356;50.544;9.642;2023-07-09T03:57:17;98585.59;;;17.35;79.94
20394;BME280;10356;50.544;9.642;2023-07-09T03:59:44;98584.00;;;17.86;77.85
20394;BME280;10356;50.544;9.642;2023-07-09T04:02:10;98590.50;;;18.33;75.26
20394;BME280;10356;50.544;9.642;2023-07-09T04:04:37;98586.22;;;18.74;73.49
20394;BME280;10356;50.544;9.642;2023-07-09T04:07:03;98583.28;;;19.09;71.87
20394;BME280;10356;50.544;9.642;2023-07-09T04:09:30;98586.66;;;19.43;70.18
20394;BME280;10356;50.544;9.642;2023-07-09T04:11:56;98595.53;;;19.66;68.99
20394;BME280;10356;50.544;9.642;2023-07-09T04:14:24;98590.66;;;20.02;67.52
20394;BME280;10356;50.544;9.642;2023-07-09T04:16:51;98596.91;;;20.25;66.26
20394;BME280;10356;50.544;9.642;2023-07-09T04:19:17;98596.84;;;20.41;65.30
20394;BME280;10356;50.544;9.642;2023-07-09T04:21:44;98604.25;;;20.54;64.02
20394;BME280;10356;50.544;9.642;2023-07-09T04:24:10;98601.75;;;20.60;63.65
20394;BME280;10356;50.544;9.642;2023-07-09T04:26:37;98606.34;;;20.66;63.25
20394;BME280;10356;50.544;9.642;2023-07-09T04:29:04;98608.34;;;20.64;64.72
20394;BME280;10356;50.544;9.642;2023-07-09T04:31:32;98605.19;;;20.91;63.52
20394;BME280;10356;50.544;9.642;2023-07-09T04:33:59;98602.03;;;20.96;63.29
20394;BME280;10356;50.544;9.642;2023-07-09T04:36:25;98603.44;;;20.84;62.81
20394;BME280;10356;50.544;9.642;2023-07-09T04:38:52;98604.75;;;20.49;63.85
20394;BME280;10356;50.544;9.642;2023-07-09T04:41:18;98604.19;;;20.15;64.51
20394;BME280;10356;50.544;9.642;2023-07-09T04:43:45;98602.22;;;20.25;64.89
20394;BME280;10356;50.544;9.642;2023-07-09T04:46:11;98608.19;;;20.58;64.11
20394;BME280;10356;50.544;9.642;2023-07-09T04:48:39;98605.81;;;20.71;63.31
20394;BME280;10356;50.544;9.642;2023-07-09T04:51:05;98609.69;;;20.52;63.01
20394;BME280;10356;50.544;9.642;2023-07-09T04:53:32;98600.22;;;20.27;63.89
20394;BME280;10356;50.544;9.642;2023-07-09T04:55:58;98604.53;;;20.04;65.20
20394;BME280;10356;50.544;9.642;2023-07-09T04:58:25;98606.56;;;19.86;66.94
20394;BME280;10356;50.544;9.642;2023-07-09T05:00:51;98609.91;;;19.72;68.92
20394;BME280;10356;50.544;9.642;2023-07-09T05:03:18;98614.88;;;19.67;68.99
20394;BME280;10356;50.544;9.642;2023-07-09T05:05:46;98611.75;;;19.63;68.85
20394;BME280;10356;50.544;9.642;2023-07-09T05:08:13;98614.53;;;19.62;70.31
20394;BME280;10356;50.544;9.642;2023-07-09T05:10:41;98612.25;;;19.67;71.43
20394;BME280;10356;50.544;9.642;2023-07-09T05:13:07;98612.56;;;19.64;70.11
20394;BME280;10356;50.544;9.642;2023-07-09T05:15:34;98608.59;;;19.44;71.60
20394;BME280;10356;50.544;9.642;2023-07-09T05:18:00;98610.25;;;19.53;71.39
20394;BME280;10356;50.544;9.642;2023-07-09T05:20:27;98605.81;;;19.45;72.68
20394;BME280;10356;50.544;9.642;2023-07-09T05:22:55;98605.94;;;19.60;72.50
20394;BME280;10356;50.544;9.642;2023-07-09T05:25:21;98617.69;;;19.73;71.89
20394;BME280;10356;50.544;9.642;2023-07-09T05:27:48;98614.84;;;19.83;69.88
20394;BME280;10356;50.544;9.642;2023-07-09T05:30:14;98608.53;;;20.00;68.80
20394;BME280;10356;50.544;9.642;2023-07-09T05:32:41;98614.13;;;20.13;68.45
20394;BME280;10356;50.544;9.642;2023-07-09T05:35:08;98615.75;;;20.14;64.53
20394;BME280;10356;50.544;9.642;2023-07-09T05:37:35;98617.41;;;20.31;64.02
20394;BME280;10356;50.544;9.642;2023-07-09T05:40:04;98616.38;;;20.40;63.50
20394;BME280;10356;50.544;9.642;2023-07-09T05:42:31;98610.06;;;20.49;61.93
20394;BME280;10356;50.544;9.642;2023-07-09T05:44:58;98612.38;;;20.44;61.49
20394;BME280;10356;50.544;9.642;2023-07-09T05:47:24;98608.44;;;20.71;61.96
20394;BME280;10356;50.544;9.642;2023-07-09T05:49:52;98613.78;;;20.93;61.28
20394;BME280;10356;50.544;9.642;2023-07-09T05:52:20;98622.69;;;21.09;60.74
20394;BME280;10356;50.544;9.642;2023-07-09T05:54:49;98624.56;;;21.23;59.94
20394;BME280;10356;50.544;9.642;2023-07-09T05:57:17;98621.69;;;21.32;59.73
20394;BME280;10356;50.544;9.642;2023-07-09T05:59:44;98623.91;;;21.43;58.59
20394;BME280;10356;50.544;9.642;2023-07-09T06:02:11;98615.72;;;21.53;58.04
20394;BME280;10356;50.544;9.642;2023-07-09T06:04:38;98618.03;;;21.70;56.96
20394;BME280;10356;50.544;9.642;2023-07-09T06:07:05;98632.16;;;21.86;56.58
20394;BME280;10356;50.544;9.642;2023-07-09T06:09:32;98626.72;;;22.16;55.96
20394;BME280;10356;50.544;9.642;2023-07-09T06:11:58;98627.81;;;22.36;57.64
20394;BME280;10356;50.544;9.642;2023-07-09T06:14:27;98618.84;;;22.67;56.96
20394;BME280;10356;50.544;9.642;2023-07-09T06:16:54;98624.47;;;22.93;54.45
20394;BME280;10356;50.544;9.642;2023-07-09T06:19:20;98628.69;;;23.23;54.00
20394;BME280;10356;50.544;9.642;2023-07-09T06:21:47;98629.50;;;23.23;52.65
20394;BME280;10356;50.544;9.642;2023-07-09T06:24:13;98621.16;;;23.48;53.18
20394;BME280;10356;50.544;9.642;2023-07-09T06:26:40;98627.09;;;23.71;52.38
20394;BME280;10356;50.544;9.642;2023-07-09T06:29:06;98616.75;;;24.10;52.07
20394;BME280;10356;50.544;9.642;2023-07-09T06:31:34;98620.81;;;24.40;52.90
20394;BME280;10356;50.544;9.642;2023-07-09T06:34:01;98617.47;;;24.25;50.64
20394;BME280;10356;50.544;9.642;2023-07-09T06:36:27;98627.69;;;24.56;49.62
20394;BME280;10356;50.544;9.642;2023-07-09T06:38:54;98624.97;;;24.83;48.89
20394;BME280;10356;50.544;9.642;2023-07-09T06:41:20;98624.66;;;25.13;50.03
20394;BME280;10356;50.544;9.642;2023-07-09T06:43:47;98619.78;;;25.55;48.59
20394;BME280;10356;50.544;9.642;2023-07-09T06:46:14;98624.72;;;25.78;47.86
20394;BME280;10356;50.544;9.642;2023-07-09T06:48:42;98628.00;;;25.80;47.62
20394;BME280;10356;50.544;9.642;2023-07-09T06:51:09;98630.06;;;25.98;48.32
20394;BME280;10356;50.544;9.642;2023-07-09T06:53:35;98627.34;;;26.37;50.35
20394;BME280;10356;50.544;9.642;2023-07-09T06:56:03;98632.31;;;26.27;46.86
20394;BME280;10356;50.544;9.642;2023-07-09T06:58:31;98629.34;;;26.54;46.82
20394;BME280;10356;50.544;9.642;2023-07-09T07:01:00;98625.34;;;26.83;47.58
20394;BME280;10356;50.544;9.642;2023-07-09T07:03:26;98623.81;;;27.07;46.82
20394;BME280;10356;50.544;9.642;2023-07-09T07:05:55;98623.94;;;27.50;45.74
20394;BME280;10356;50.544;9.642;2023-07-09T07:08:23;98621.38;;;27.30;46.33
20394;BME280;10356;50.544;9.642;2023-07-09T07:10:54;98615.28;;;27.79;44.95
20394;BME280;10356;50.544;9.642;2023-07-09T07:13:26;98620.50;;;27.92;46.45
20394;BME280;10356;50.544;9.642;2023-07-09T07:15:53;98615.13;;;27.98;43.97
20394;BME280;10356;50.544;9.642;2023-07-09T07:18:19;98614.38;;;28.34;46.32
20394;BME280;10356;50.544;9.642;2023-07-09T07:20:46;98606.84;;;28.61;43.32
20394;BME280;10356;50.544;9.642;2023-07-09T07:23:14;98612.66;;;29.05;42.02
20394;BME280;10356;50.544;9.642;2023-07-09T07:25:41;98602.00;;;29.17;41.15
20394;BME280;10356;50.544;9.642;2023-07-09T07:28:07;98601.84;;;29.12;42.67
20394;BME280;10356;50.544;9.642;2023-07-09T07:30:34;98601.75;;;28.89;42.43
20394;BME280;10356;50.544;9.642;2023-07-09T07:33:00;98598.81;;;29.09;41.71
20394;BME280;10356;50.544;9.642;2023-07-09T07:35:27;98601.03;;;29.12;40.86
20394;BME280;10356;50.544;9.642;2023-07-09T07:37:53;98601.31;;;29.22;41.28
20394;BME280;10356;50.544;9.642;2023-07-09T07:40:21;98601.88;;;29.65;42.67
20394;BME280;10356;50.544;9.642;2023-07-09T07:42:48;98604.38;;;30.13;42.99
20394;BME280;10356;50.544;9.642;2023-07-09T07:45:14;98604.00;;;30.55;40.35
20394;BME280;10356;50.544;9.642;2023-07-09T07:47:41;98611.50;;;30.53;38.31
20394;BME280;10356;50.544;9.642;2023-07-09T07:50:09;98602.28;;;30.78;38.50
20394;BME280;10356;50.544;9.642;2023-07-09T07:52:36;98609.50;;;31.00;41.10
20394;BME280;10356;50.544;9.642;2023-07-09T07:55:03;98605.13;;;31.39;38.67
20394;BME280;10356;50.544;9.642;2023-07-09T07:57:31;98600.09;;;31.59;37.52
20394;BME280;10356;50.544;9.642;2023-07-09T07:59:58;98608.91;;;31.71;40.08
20394;BME280;10356;50.544;9.642;2023-07-09T08:02:24;98599.59;;;31.95;37.75
20394;BME280;10356;50.544;9.642;2023-07-09T08:04:51;98602.34;;;32.00;36.82
20394;BME280;10356;50.544;9.642;2023-07-09T08:07:19;98608.22;;;32.14;36.09
20394;BME280;10356;50.544;9.642;2023-07-09T08:09:46;98601.78;;;32.37;35.63
20394;BME280;10356;50.544;9.642;2023-07-09T08:12:13;98597.50;;;32.57;36.41
20394;BME280;10356;50.544;9.642;2023-07-09T08:14:42;98602.72;;;32.64;35.83
20394;BME280;10356;50.544;9.642;2023-07-09T08:17:11;98585.94;;;32.83;35.24
20394;BME280;10356;50.544;9.642;2023-07-09T08:19:44;98592.88;;;33.49;36.18
20394;BME280;10356;50.544;9.642;2023-07-09T08:22:12;98594.28;;;33.30;35.34
20394;BME280;10356;50.544;9.642;2023-07-09T08:24:38;98588.69;;;33.68;32.16
20394;BME280;10356;50.544;9.642;2023-07-09T08:27:06;98588.13;;;33.66;31.70
20394;BME280;10356;50.544;9.642;2023-07-09T08:29:33;98584.44;;;33.77;33.47
20394;BME280;10356;50.544;9.642;2023-07-09T08:32:04;98586.41;;;34.24;33.73
20394;BME280;10356;50.544;9.642;2023-07-09T08:34:30;98575.84;;;34.27;30.03
20394;BME280;10356;50.544;9.642;2023-07-09T08:36:57;98573.38;;;34.16;29.58
20394;BME280;10356;50.544;9.642;2023-07-09T08:39:23;98578.28;;;34.29;29.83
20394;BME280;10356;50.544;9.642;2023-07-09T08:41:54;98585.19;;;34.51;30.08
20394;BME280;10356;50.544;9.642;2023-07-09T08:44:37;98585.47;;;34.55;29.21
20394;BME280;10356;50.544;9.642;2023-07-09T08:47:17;98578.84;;;34.93;29.83
20394;BME280;10356;50.544;9.642;2023-07-09T08:49:51;98580.78;;;35.07;29.49
20394;BME280;10356;50.544;9.642;2023-07-09T08:52:26;98580.25;;;35.15;29.51
20394;BME280;10356;50.544;9.642;2023-07-09T08:54:55;98573.22;;;35.29;28.89
20394;BME280;10356;50.544;9.642;2023-07-09T08:57:25;98574.03;;;35.05;29.48
20394;BME280;10356;50.544;9.642;2023-07-09T09:00:03;98575.38;;;35.12;28.92
20394;BME280;10356;50.544;9.642;2023-07-09T09:02:39;98574.31;;;35.33;28.57
20394;BME280;10356;50.544;9.642;2023-07-09T09:05:11;98571.88;;;35.42;28.14
20394;BME280;10356;50.544;9.642;2023-07-09T09:07:41;98573.81;;;35.57;28.10
20394;BME280;10356;50.544;9.642;2023-07-09T09:10:12;98575.41;;;35.88;28.20
20394;BME280;10356;50.544;9.642;2023-07-09T09:12:51;98571.06;;;36.07;28.89
20394;BME280;10356;50.544;9.642;2023-07-09T09:15:22;98572.13;;;36.26;28.21
20394;BME280;10356;50.544;9.642;2023-07-09T09:17:54;98573.22;;;36.20;27.87
20394;BME280;10356;50.544;9.642;2023-07-09T09:20:23;98570.19;;;36.42;28.13
20394;BME280;10356;50.544;9.642;2023-07-09T09:22:53;98570.19;;;36.32;28.57
20394;BME280;10356;50.544;9.642;2023-07-09T09:25:24;98578.88;;;36.44;28.11
20394;BME280;10356;50.544;9.642;2023-07-09T09:27:53;98579.69;;;36.44;28.17
20394;BME280;10356;50.544;9.642;2023-07-09T09:30:21;98585.41;;;36.22;27.48
20394;BME280;10356;50.544;9.642;2023-07-09T09:32:54;98577.50;;;36.41;27.50
20394;BME280;10356;50.544;9.642;2023-07-09T09:35:26;98574.94;;;36.65;27.25
20394;BME280;10356;50.544;9.642;2023-07-09T09:37:54;98571.97;;;37.15;26.77
20394;BME280;10356;50.544;9.642;2023-07-09T09:40:23;98584.19;;;37.18;26.97
20394;BME280;10356;50.544;9.642;2023-07-09T09:42:50;98574.34;;;36.78;26.39
20394;BME280;10356;50.544;9.642;2023-07-09T09:45:20;98578.34;;;36.26;28.05
20394;BME280;10356;50.544;9.642;2023-07-09T09:47:48;98573.94;;;36.51;28.27
20394;BME280;10356;50.544;9.642;2023-07-09T09:50:17;98572.16;;;36.90;26.67
20394;BME280;10356;50.544;9.642;2023-07-09T09:52:46;98572.94;;;36.85;26.98
20394;BME280;10356;50.544;9.642;2023-07-09T09:55:17;98571.56;;;36.98;27.63
20394;BME280;10356;50.544;9.642;2023-07-09T09:57:48;98570.13;;;37.05;27.16
20394;BME280;10356;50.544;9.642;2023-07-09T10:00:17;98564.41;;;37.12;27.06
20394;BME280;10356;50.544;9.642;2023-07-09T10:02:44;98571.56;;;37.70;27.05
20394;BME280;10356;50.544;9.642;2023-07-09T10:05:12;98571.88;;;37.64;26.26
20394;BME280;10356;50.544;9.642;2023-07-09T10:07:44;98567.25;;;37.31;26.43
20394;BME280;10356;50.544;9.642;2023-07-09T10:10:17;98561.91;;;37.16;27.25
20394;BME280;10356;50.544;9.642;2023-07-09T10:12:50;98562.06;;;36.95;26.83
20394;BME280;10356;50.544;9.642;2023-07-09T10:15:29;98563.50;;;36.78;27.35
20394;BME280;10356;50.544;9.642;2023-07-09T10:18:00;98567.72;;;37.04;26.57
20394;BME280;10356;50.544;9.642;2023-07-09T10:20:34;98557.94;;;37.42;26.13
20394;BME280;10356;50.544;9.642;2023-07-09T10:23:13;98560.03;;;37.55;28.88
20394;BME280;10356;50.544;9.642;2023-07-09T10:25:48;98567.75;;;37.71;25.72
20394;BME280;10356;50.544;9.642;2023-07-09T10:28:28;98564.84;;;37.63;26.55
20394;BME280;10356;50.544;9.642;2023-07-09T10:31:06;98558.66;;;37.86;26.13
20394;BME280;10356;50.544;9.642;2023-07-09T10:33:40;98560.31;;;37.82;26.41
20394;BME280;10356;50.544;9.642;2023-07-09T10:36:21;98560.47;;;37.96;27.00
20394;BME280;10356;50.544;9.642;2023-07-09T10:38:56;98564.28;;;38.23;25.41
20394;BME280;10356;50.544;9.642;2023-07-09T10:41:25;98554.34;;;37.80;26.07
20394;BME280;10356;50.544;9.642;2023-07-09T10:43:57;98550.34;;;38.01;25.10
20394;BME280;10356;50.544;9.642;2023-07-09T10:46:29;98554.09;;;37.81;26.24
20394;BME280;10356;50.544;9.642;2023-07-09T10:48:59;98540.00;;;37.98;25.28
20394;BME280;10356;50.544;9.642;2023-07-09T10:51:31;98540.41;;;38.10;26.30
20394;BME280;10356;50.544;9.642;2023-07-09T10:54:04;98548.25;;;38.64;25.37
20394;BME280;10356;50.544;9.642;2023-07-09T10:56:35;98549.59;;;38.43;24.91
20394;BME280;10356;50.544;9.642;2023-07-09T10:59:06;98551.88;;;38.36;25.72
20394;BME280;10356;50.544;9.642;2023-07-09T11:01:39;98552.94;;;38.58;25.67
20394;BME280;10356;50.544;9.642;2023-07-09T11:04:20;98543.94;;;38.39;25.43
20394;BME280;10356;50.544;9.642;2023-07-09T11:06:53;98532.59;;;38.75;24.88
20394;BME280;10356;50.544;9.642;2023-07-09T11:09:27;98532.13;;;38.25;24.81
20394;BME280;10356;50.544;9.642;2023-07-09T11:11:58;98534.59;;;38.45;24.42
20394;BME280;10356;50.544;9.642;2023-07-09T11:14:30;98524.56;;;38.41;25.76
20394;BME280;10356;50.544;9.642;2023-07-09T11:17:00;98525.09;;;38.19;26.56
20394;BME280;10356;50.544;9.642;2023-07-09T11:19:28;98524.06;;;38.57;25.24
20394;BME280;10356;50.544;9.642;2023-07-09T11:22:01;98530.47;;;38.90;26.81
20394;BME280;10356;50.544;9.642;2023-07-09T11:24:34;98521.75;;;38.27;24.62
20394;BME280;10356;50.544;9.642;2023-07-09T11:27:01;98521.53;;;38.42;25.41
20394;BME280;10356;50.544;9.642;2023-07-09T11:29:27;98531.56;;;38.71;24.33
20394;BME280;10356;50.544;9.642;2023-07-09T11:31:55;98525.16;;;38.56;24.77
20394;BME280;10356;50.544;9.642;2023-07-09T11:34:27;98530.81;;;38.84;23.92
20394;BME280;10356;50.544;9.642;2023-07-09T11:36:57;98521.56;;;38.85;23.40
20394;BME280;10356;50.544;9.642;2023-07-09T11:39:28;98528.47;;;38.96;23.82
20394;BME280;10356;50.544;9.642;2023-07-09T11:41:57;98522.97;;;38.58;24.93
20394;BME280;10356;50.544;9.642;2023-07-09T11:44:25;98513.75;;;38.97;23.91
20394;BME280;10356;50.544;9.642;2023-07-09T11:47:19;98514.19;;;38.67;24.50
20394;BME280;10356;50.544;9.642;2023-07-09T11:49:52;98514.50;;;38.60;24.56
20394;BME280;10356;50.544;9.642;2023-07-09T11:52:39;98509.72;;;39.08;24.14
20394;BME280;10356;50.544;9.642;2023-07-09T11:55:24;98507.56;;;39.10;23.87
20394;BME280;10356;50.544;9.642;2023-07-09T11:57:56;98506.72;;;39.60;24.40
20394;BME280;10356;50.544;9.642;2023-07-09T12:00:25;98521.72;;;39.90;23.01
20394;BME280;10356;50.544;9.642;2023-07-09T12:02:54;98509.53;;;39.23;25.06
20394;BME280;10356;50.544;9.642;2023-07-09T12:05:25;98505.69;;;39.24;24.27
20394;BME280;10356;50.544;9.642;2023-07-09T12:07:53;98507.84;;;39.59;23.85
20394;BME280;10356;50.544;9.642;2023-07-09T12:10:22;98507.59;;;39.23;23.87
20394;BME280;10356;50.544;9.642;2023-07-09T12:12:53;98498.81;;;39.26;24.42
20394;BME280;10356;50.544;9.642;2023-07-09T12:15:23;98494.63;;;38.59;24.01
20394;BME280;10356;50.544;9.642;2023-07-09T12:17:56;98500.06;;;38.59;24.53
20394;BME280;10356;50.544;9.642;2023-07-09T12:20:23;98492.28;;;38.90;24.27
20394;BME280;10356;50.544;9.642;2023-07-09T12:22:49;98497.47;;;39.10;23.34
20394;BME280;10356;50.544;9.642;2023-07-09T12:25:22;98492.91;;;39.38;22.93
20394;BME280;10356;50.544;9.642;2023-07-09T12:27:49;98481.53;;;37.96;24.13
20394;BME280;10356;50.544;9.642;2023-07-09T12:30:16;98472.31;;;39.13;24.69
20394;BME280;10356;50.544;9.642;2023-07-09T12:32:45;98475.94;;;39.41;23.51
20394;BME280;10356;50.544;9.642;2023-07-09T12:35:13;98482.53;;;39.54;23.03
20394;BME280;10356;50.544;9.642;2023-07-09T12:37:42;98466.09;;;39.26;23.05
20394;BME280;10356;50.544;9.642;2023-07-09T12:40:15;98472.81;;;38.17;23.67
20394;BME280;10356;50.544;9.642;2023-07-09T12:42:43;98467.72;;;38.77;23.92
20394;BME280;10356;50.544;9.642;2023-07-09T12:45:15;98469.88;;;38.93;23.95
20394;BME280;10356;50.544;9.642;2023-07-09T12:47:46;98465.75;;;38.58;23.78
20394;BME280;10356;50.544;9.642;2023-07-09T12:50:27;98466.84;;;38.57;24.21
20394;BME280;10356;50.544;9.642;2023-07-09T12:52:56;98456.56;;;39.10;23.71
20394;BME280;10356;50.544;9.642;2023-07-09T12:55:25;98452.94;;;39.15;23.22
20394;BME280;10356;50.544;9.642;2023-07-09T12:57:53;98448.16;;;39.53;23.75
20394;BME280;10356;50.544;9.642;2023-07-09T13:00:21;98450.22;;;39.74;23.96
20394;BME280;10356;50.544;9.642;2023-07-09T13:02:54;98447.31;;;40.11;22.95
20394;BME280;10356;50.544;9.642;2023-07-09T13:05:23;98439.19;;;39.20;23.77
20394;BME280;10356;50.544;9.642;2023-07-09T13:07:51;98434.50;;;38.75;23.52